Terminal Aerodrome Forecast
Issued by NWS

Home | Current Version | Previous Version | Text Only | Print | Product List | Glossary On
Versions: 1 2 3 4 5 6 7 8 9 10 11 12 13 14 15 16 17 18 19
000
FTUS43 KLSX 271100
TAFSUS
TAF
KSUS 271125Z 2712/2812 21008KT P6SM BKN012 OVC025
     FM271600 28014G20KT P6SM SCT008 OVC015
     FM271800 30012KT P6SM OVC020
     FM272000 30010KT P6SM OVC040
     FM280600 33005KT P6SM BKN150=

USA.gov is the U.S. government's official web portal to all federal, state and local government web resources and services.